createdAt,value
2018-06-09T00:01:57.224Z,90.50
2018-06-09T00:04:26.287Z,90.80
2018-06-09T00:06:55.705Z,91.90
2018-06-09T00:09:24.751Z,92.40
2018-06-09T00:11:53.783Z,92.80
2018-06-09T00:14:22.827Z,92.80
2018-06-09T00:16:51.954Z,93.00
2018-06-09T00:19:21.001Z,92.40
2018-06-09T00:21:50.063Z,92.40
2018-06-09T00:24:19.116Z,92.50
2018-06-09T00:26:48.143Z,92.60
2018-06-09T00:29:17.212Z,92.50
2018-06-09T00:31:46.298Z,92.80
2018-06-09T00:34:15.342Z,93.00
2018-06-09T00:36:44.363Z,93.40
2018-06-09T00:39:13.412Z,93.40
2018-06-09T00:41:42.651Z,93.50
2018-06-09T00:44:11.699Z,93.70
2018-06-09T00:46:40.726Z,93.70
2018-06-09T00:49:09.881Z,94.00
2018-06-09T00:51:38.927Z,94.40
2018-06-09T00:54:07.979Z,94.20
2018-06-09T00:56:46.751Z,94.30
2018-06-09T00:59:15.815Z,94.70
2018-06-09T01:01:44.853Z,95.00
2018-06-09T01:04:13.907Z,94.90
2018-06-09T01:06:42.941Z,96.30
2018-06-09T01:09:11.991Z,96.40
2018-06-09T01:11:41.120Z,96.50
2018-06-09T01:14:10.187Z,96.40
2018-06-09T01:16:39.207Z,96.60
2018-06-09T01:19:08.272Z,96.90
2018-06-09T01:21:37.331Z,96.90
2018-06-09T01:24:06.412Z,97.30
2018-06-09T01:26:35.461Z,97.80
2018-06-09T01:29:04.496Z,98.10
2018-06-09T01:31:33.548Z,98.00
2018-06-09T01:34:02.570Z,98.70
2018-06-09T01:36:31.633Z,99.50
2018-06-09T01:39:00.652Z,99.80
2018-06-09T01:41:29.695Z,99.90
2018-06-09T01:43:58.721Z,99.90
2018-06-09T01:46:27.763Z,99.90
2018-06-09T01:48:56.792Z,99.90
2018-06-09T01:51:25.836Z,99.90
2018-06-09T01:53:54.857Z,99.60
2018-06-09T01:56:23.932Z,99.50
2018-06-09T01:58:52.940Z,99.30
2018-06-09T02:01:21.993Z,99.60
2018-06-09T02:03:51.016Z,99.90
2018-06-09T02:06:20.060Z,99.90
2018-06-09T02:08:49.171Z,99.90
2018-06-09T02:13:46.874Z,99.90
2018-06-09T02:16:15.919Z,99.90
2018-06-09T02:18:44.951Z,99.90
2018-06-09T02:21:14.008Z,99.90
2018-06-09T02:23:43.056Z,99.90
2018-06-09T02:26:12.103Z,99.90
2018-06-09T02:28:41.131Z,99.90
2018-06-09T02:31:10.203Z,99.90
2018-06-09T02:33:39.222Z,99.90
2018-06-09T02:36:08.316Z,99.90
2018-06-09T02:38:37.344Z,99.90
2018-06-09T02:41:06.444Z,99.90
2018-06-09T02:43:35.472Z,99.90
2018-06-09T02:46:04.517Z,99.90
2018-06-09T02:48:33.544Z,99.90
2018-06-09T02:51:02.597Z,99.90
2018-06-09T02:53:31.620Z,99.90
2018-06-09T02:56:00.664Z,99.90
2018-06-09T03:00:58.373Z,99.90
2018-06-09T03:03:27.397Z,99.90
2018-06-09T03:05:56.457Z,99.90
2018-06-09T03:08:25.481Z,99.90
2018-06-09T03:10:54.535Z,99.90
2018-06-09T03:13:23.570Z,99.90
2018-06-09T03:15:52.926Z,99.90
2018-06-09T03:18:21.948Z,99.90
2018-06-09T03:20:51.016Z,99.90
2018-06-09T03:23:20.061Z,99.90
2018-06-09T03:25:49.114Z,99.90
2018-06-09T03:28:18.158Z,99.90
2018-06-09T03:30:47.210Z,99.90
2018-06-09T03:33:16.231Z,99.90
2018-06-09T03:35:45.279Z,99.90
2018-06-09T03:38:14.303Z,99.90
2018-06-09T03:40:43.359Z,99.90
2018-06-09T03:43:12.442Z,99.90
2018-06-09T03:45:41.517Z,99.90
2018-06-09T03:48:10.563Z,99.90
2018-06-09T03:50:39.593Z,99.90
2018-06-09T03:53:08.651Z,99.90
2018-06-09T03:55:37.696Z,99.90
2018-06-09T03:58:06.762Z,99.90
2018-06-09T04:00:35.787Z,99.90
2018-06-09T04:03:04.873Z,99.90
2018-06-09T04:05:33.903Z,99.90
2018-06-09T04:08:02.943Z,99.90
2018-06-09T04:10:31.984Z,99.90
2018-06-09T04:13:01.721Z,99.90
2018-06-09T04:15:30.757Z,99.90
2018-06-09T04:17:59.795Z,99.90
2018-06-09T04:20:28.824Z,99.90
2018-06-09T04:22:57.908Z,99.90
2018-06-09T04:25:26.931Z,99.90
2018-06-09T04:27:55.972Z,99.90
2018-06-09T04:30:25.009Z,99.90
2018-06-09T04:32:54.058Z,99.90
2018-06-09T04:35:23.092Z,99.90
2018-06-09T04:37:52.154Z,99.90
2018-06-09T04:40:21.175Z,99.90
2018-06-09T04:42:50.215Z,99.90
2018-06-09T04:45:19.244Z,99.90
2018-06-09T04:47:48.291Z,99.90
2018-06-09T04:50:17.315Z,99.90
2018-06-09T04:52:46.372Z,99.90
2018-06-09T04:55:15.394Z,99.90
2018-06-09T04:57:44.439Z,99.90
2018-06-09T05:00:13.468Z,99.90
2018-06-09T05:02:42.540Z,99.90
2018-06-09T05:05:11.591Z,99.90
2018-06-09T05:07:40.648Z,99.90
2018-06-09T05:10:09.982Z,99.90
2018-06-09T05:12:39.025Z,99.90
2018-06-09T05:15:08.052Z,99.90
2018-06-09T05:17:37.092Z,99.90
2018-06-09T05:20:06.124Z,99.90
2018-06-09T05:22:35.216Z,99.90
2018-06-09T05:25:04.260Z,99.90
2018-06-09T05:27:33.364Z,99.90
2018-06-09T05:30:02.400Z,99.90
2018-06-09T05:32:31.452Z,99.90
2018-06-09T05:35:00.507Z,99.90
2018-06-09T05:37:29.574Z,99.90
2018-06-09T05:39:58.611Z,99.90
2018-06-09T05:42:27.704Z,99.90
2018-06-09T05:44:56.736Z,99.90
2018-06-09T05:47:25.791Z,99.90
2018-06-09T05:52:23.499Z,99.90
2018-06-09T05:54:52.535Z,99.90
2018-06-09T05:57:21.744Z,99.90
2018-06-09T05:59:50.778Z,99.90
2018-06-09T06:02:19.916Z,99.90
2018-06-09T06:04:49.147Z,99.90
2018-06-09T06:07:18.226Z,99.90
2018-06-09T06:09:47.256Z,99.90
2018-06-09T06:12:16.327Z,99.90
2018-06-09T06:14:45.360Z,99.90
2018-06-09T06:17:14.407Z,99.90
2018-06-09T06:19:43.526Z,99.90
2018-06-09T06:22:12.578Z,99.90
2018-06-09T06:24:41.637Z,99.90
2018-06-09T06:27:10.656Z,99.90
2018-06-09T06:29:39.910Z,99.90
2018-06-09T06:32:09.003Z,99.90
2018-06-09T06:34:38.056Z,99.90
2018-06-09T06:37:07.096Z,99.90
2018-06-09T06:39:36.156Z,99.90
2018-06-09T06:42:05.229Z,99.90
2018-06-09T06:44:34.392Z,99.90
2018-06-09T06:47:03.507Z,99.90
2018-06-09T06:49:32.585Z,99.60
2018-06-09T06:52:02.311Z,99.90
2018-06-09T06:54:31.365Z,99.20
2018-06-09T06:59:31.503Z,98.10
2018-06-09T07:02:01.735Z,97.80
2018-06-09T07:04:32.523Z,97.30
2018-06-09T07:09:33.989Z,96.60
2018-06-09T07:12:04.430Z,96.10
2018-06-09T07:14:34.959Z,95.80
2018-06-09T07:17:04.009Z,95.20
2018-06-09T07:19:33.079Z,93.90
2018-06-09T07:22:02.136Z,93.70
2018-06-09T07:24:31.193Z,93.50
2018-06-09T07:27:00.227Z,92.70
2018-06-09T07:29:29.609Z,91.90
2018-06-09T07:31:58.696Z,91.10
2018-06-09T07:34:28.355Z,90.40
2018-06-09T07:36:57.385Z,90.60
2018-06-09T07:39:26.596Z,90.60
2018-06-09T07:41:55.630Z,88.30
2018-06-09T07:44:24.688Z,87.30
2018-06-09T07:46:53.783Z,86.00
2018-06-09T07:49:23.049Z,87.90
2018-06-09T07:51:52.090Z,87.70
2018-06-09T07:54:21.131Z,82.50
2018-06-09T07:56:50.194Z,82.30
2018-06-09T07:59:19.305Z,78.80
2018-06-09T08:01:48.382Z,82.30
2018-06-09T08:04:18.071Z,82.40
2018-06-09T08:06:47.351Z,80.70
2018-06-09T08:09:16.642Z,80.50
2018-06-09T08:11:46.448Z,76.40
2018-06-09T08:14:15.680Z,76.30
2018-06-09T08:16:44.752Z,74.90
2018-06-09T08:19:13.911Z,74.40
2018-06-09T08:21:42.969Z,75.20
2018-06-09T08:24:12.063Z,75.90
2018-06-09T08:26:41.162Z,75.70
2018-06-09T08:29:10.373Z,73.20
2018-06-09T08:31:39.436Z,74.30
2018-06-09T08:34:09.259Z,71.90
2018-06-09T08:36:38.310Z,72.50
2018-06-09T08:39:07.874Z,71.70
2018-06-09T08:41:37.128Z,69.80
2018-06-09T08:46:34.992Z,68.90
2018-06-09T08:49:04.283Z,68.40
2018-06-09T08:51:33.425Z,66.00
2018-06-09T08:54:02.515Z,63.40
2018-06-09T08:56:31.611Z,64.70
2018-06-09T08:59:00.887Z,63.30
2018-06-09T09:01:29.958Z,63.70
2018-06-09T09:03:58.999Z,61.20
2018-06-09T09:06:28.035Z,61.70
2018-06-09T09:08:57.062Z,60.20
2018-06-09T09:11:26.140Z,58.20
2018-06-09T09:13:55.190Z,59.30
2018-06-09T09:16:24.234Z,58.10
2018-06-09T09:18:53.269Z,58.90
2018-06-09T09:21:22.353Z,57.20
2018-06-09T09:23:51.410Z,54.80
2018-06-09T09:26:20.486Z,57.40
2018-06-09T09:28:49.527Z,57.00
2018-06-09T09:33:47.215Z,56.70
2018-06-09T09:36:16.287Z,57.70
2018-06-09T09:38:45.343Z,56.80
2018-06-09T09:41:14.499Z,56.80
2018-06-09T09:43:43.574Z,54.70
2018-06-09T09:46:12.644Z,53.50
2018-06-09T09:48:41.773Z,55.00
2018-06-09T09:53:39.553Z,54.40
2018-06-09T09:56:08.612Z,54.00
2018-06-09T09:58:37.663Z,55.20
2018-06-09T10:01:06.810Z,55.00
2018-06-09T10:03:35.821Z,54.40
2018-06-09T10:06:04.900Z,54.90
2018-06-09T10:08:33.944Z,51.90
2018-06-09T10:11:03.046Z,54.40
2018-06-09T10:13:32.133Z,52.70
2018-06-09T10:16:01.194Z,52.70
2018-06-09T10:18:30.293Z,50.70
2018-06-09T10:20:59.492Z,50.00
2018-06-09T10:23:28.638Z,48.80
2018-06-09T10:25:57.869Z,50.10
2018-06-09T10:28:27.052Z,49.60
2018-06-09T10:30:56.227Z,49.60
2018-06-09T10:33:25.300Z,50.20
2018-06-09T10:35:54.387Z,47.60
2018-06-09T10:38:23.459Z,48.90
2018-06-09T10:40:52.551Z,48.00
2018-06-09T10:43:21.717Z,48.60
2018-06-09T10:45:50.829Z,46.50
2018-06-09T10:48:19.877Z,46.60
2018-06-09T10:50:48.912Z,46.00
2018-06-09T10:53:18.016Z,46.40
2018-06-09T10:55:47.042Z,46.00
2018-06-09T11:03:13.481Z,44.50
2018-06-09T11:05:42.568Z,44.20
2018-06-09T11:08:11.619Z,46.30
2018-06-09T11:10:40.639Z,45.10
2018-06-09T11:13:09.675Z,43.80
2018-06-09T11:15:38.706Z,42.80
2018-06-09T11:18:07.749Z,43.20
2018-06-09T11:20:36.778Z,43.10
2018-06-09T11:23:05.884Z,44.30
2018-06-09T11:25:34.928Z,42.80
2018-06-09T11:28:04.023Z,45.30
2018-06-09T11:30:33.031Z,44.00
2018-06-09T11:33:02.086Z,45.40
2018-06-09T11:35:31.099Z,45.20
2018-06-09T11:38:00.183Z,45.00
2018-06-09T11:40:29.471Z,47.30
2018-06-09T11:42:58.536Z,44.10
2018-06-09T11:45:27.567Z,43.90
2018-06-09T11:47:56.649Z,43.80
2018-06-09T11:50:25.752Z,43.30
2018-06-09T11:52:54.806Z,41.90
2018-06-09T11:55:23.835Z,42.20
2018-06-09T11:57:52.874Z,43.20
2018-06-09T12:00:21.923Z,41.80
2018-06-09T12:02:50.967Z,42.20
2018-06-09T12:05:20.030Z,41.70
2018-06-09T12:07:49.079Z,41.00
2018-06-09T12:10:18.101Z,41.20
2018-06-09T12:12:47.186Z,41.10
2018-06-09T12:15:16.211Z,42.30
2018-06-09T12:17:45.360Z,42.00
2018-06-09T12:22:43.108Z,40.90
2018-06-09T12:25:12.153Z,38.60
2018-06-09T12:27:41.184Z,40.50
2018-06-09T12:30:10.238Z,42.20
2018-06-09T12:32:39.256Z,41.10
2018-06-09T12:35:08.320Z,41.20
2018-06-09T12:37:37.373Z,39.80
2018-06-09T12:40:06.610Z,40.10
2018-06-09T12:42:35.637Z,39.50
2018-06-09T12:45:04.732Z,39.20
2018-06-09T12:47:33.895Z,39.40
2018-06-09T12:55:00.384Z,40.10
2018-06-09T12:57:29.412Z,40.70
2018-06-09T12:59:58.469Z,39.90
2018-06-09T13:02:27.495Z,39.40
2018-06-09T13:04:56.567Z,38.80
2018-06-09T13:07:25.572Z,39.20
2018-06-09T13:09:54.615Z,39.70
2018-06-09T13:12:23.652Z,39.00
2018-06-09T13:14:52.695Z,39.30
2018-06-09T13:17:21.751Z,39.50
2018-06-09T13:19:50.841Z,38.60
2018-06-09T13:22:19.891Z,38.70
2018-06-09T13:24:48.960Z,38.10
2018-06-09T13:27:17.975Z,37.90
2018-06-09T13:29:47.027Z,37.80
2018-06-09T13:32:16.048Z,39.50
2018-06-09T13:34:45.104Z,38.50
2018-06-09T13:37:14.132Z,38.40
2018-06-09T13:39:43.366Z,37.20
2018-06-09T13:42:12.379Z,37.10
2018-06-09T13:44:41.437Z,38.20
2018-06-09T13:47:10.469Z,39.00
2018-06-09T13:49:39.512Z,38.80
2018-06-09T13:52:08.546Z,39.00
2018-06-09T13:54:37.643Z,37.60
2018-06-09T13:57:06.636Z,37.50
2018-06-09T13:59:35.682Z,37.00
2018-06-09T14:02:04.782Z,38.90
2018-06-09T14:04:33.879Z,37.70
2018-06-09T14:07:02.910Z,37.50
2018-06-09T14:09:31.948Z,37.50
2018-06-09T14:12:00.964Z,36.80
2018-06-09T14:14:30.019Z,37.00
2018-06-09T14:16:59.069Z,37.30
2018-06-09T14:19:28.155Z,37.00
2018-06-09T14:24:26.150Z,37.90
2018-06-09T14:29:23.919Z,37.40
2018-06-09T14:31:52.953Z,36.60
2018-06-09T14:34:22.087Z,36.00
2018-06-09T14:36:51.115Z,36.90
2018-06-09T14:41:48.860Z,36.00
2018-06-09T14:44:18.105Z,37.70
2018-06-09T14:46:47.159Z,37.00
2018-06-09T14:49:16.245Z,37.20
2018-06-09T14:51:45.337Z,37.10
2018-06-09T14:54:14.349Z,37.40
2018-06-09T14:56:43.681Z,38.00
2018-06-09T15:01:41.675Z,38.80
2018-06-09T15:04:10.713Z,38.40
2018-06-09T15:06:39.773Z,36.60
2018-06-09T15:09:09.572Z,37.40
2018-06-09T15:11:38.622Z,37.20
2018-06-09T15:14:07.644Z,37.80
2018-06-09T15:16:36.684Z,38.20
2018-06-09T15:19:05.719Z,38.60
2018-06-09T15:21:34.807Z,38.30
2018-06-09T15:24:03.923Z,38.50
2018-06-09T15:26:33.125Z,39.00
2018-06-09T15:31:30.797Z,38.30
2018-06-09T15:38:57.176Z,38.30
2018-06-09T15:41:26.211Z,38.00
2018-06-09T15:43:55.293Z,39.00
2018-06-09T15:46:24.343Z,39.00
2018-06-09T15:48:53.371Z,39.50
2018-06-09T15:51:22.416Z,40.00
2018-06-09T15:53:51.430Z,39.00
2018-06-09T15:56:20.472Z,39.40
2018-06-09T15:58:49.494Z,39.50
2018-06-09T16:01:18.523Z,39.60
2018-06-09T16:03:47.540Z,39.60
2018-06-09T16:06:16.715Z,40.30
2018-06-09T16:08:45.755Z,40.60
2018-06-09T16:11:14.807Z,40.20
2018-06-09T16:13:43.832Z,40.90
2018-06-09T16:16:12.877Z,39.90
2018-06-09T16:18:41.956Z,39.90
2018-06-09T16:21:10.993Z,39.00
2018-06-09T16:23:40.032Z,39.70
2018-06-09T16:26:09.274Z,39.20
2018-06-09T16:31:07.492Z,39.30
2018-06-09T16:33:36.526Z,39.60
2018-06-09T16:36:05.592Z,39.70
2018-06-09T16:38:34.667Z,39.50
2018-06-09T16:41:03.702Z,40.10
2018-06-09T16:43:32.714Z,40.50
2018-06-09T16:46:01.773Z,40.20
2018-06-09T16:48:30.812Z,40.10
2018-06-09T16:53:28.499Z,40.50
2018-06-09T16:58:26.198Z,40.90
2018-06-09T17:00:55.252Z,41.20
2018-06-09T17:03:24.354Z,42.00
2018-06-09T17:05:53.385Z,42.10
2018-06-09T17:08:22.443Z,42.10
2018-06-09T17:13:20.142Z,41.60
2018-06-09T17:18:17.842Z,43.70
2018-06-09T17:20:46.892Z,43.80
2018-06-09T17:23:15.956Z,44.00
2018-06-09T17:25:44.981Z,44.00
2018-06-09T17:28:20.682Z,44.50
2018-06-09T17:30:49.704Z,45.30
2018-06-09T17:33:25.463Z,44.80
2018-06-09T17:35:54.905Z,45.00
2018-06-09T17:40:52.584Z,44.00
2018-06-09T17:43:21.627Z,45.60
2018-06-09T17:45:50.644Z,46.10
2018-06-09T17:48:19.732Z,45.80
2018-06-09T17:50:48.781Z,46.00
2018-06-09T17:53:17.834Z,46.20
2018-06-09T17:55:46.853Z,46.70
2018-06-09T17:58:15.887Z,47.40
2018-06-09T18:00:44.920Z,47.40
2018-06-09T18:03:13.971Z,47.90
2018-06-09T18:05:42.992Z,48.40
2018-06-09T18:08:12.071Z,49.00
2018-06-09T18:10:41.105Z,49.40
2018-06-09T18:13:10.183Z,49.50
2018-06-09T18:15:39.220Z,50.20
2018-06-09T18:18:08.283Z,50.50
2018-06-09T18:20:37.296Z,50.90
2018-06-09T18:23:06.442Z,51.30
2018-06-09T18:25:35.488Z,51.90
2018-06-09T18:28:04.870Z,52.00
2018-06-09T18:30:33.961Z,52.60
2018-06-09T18:35:31.667Z,53.40
2018-06-09T18:38:00.720Z,53.60
2018-06-09T18:40:29.769Z,53.50
2018-06-09T18:42:58.853Z,54.70
2018-06-09T18:45:27.913Z,54.80
2018-06-09T18:47:56.993Z,55.30
2018-06-09T18:50:26.024Z,56.30
2018-06-09T18:52:55.171Z,56.40
2018-06-09T18:55:24.240Z,57.00
2018-06-09T18:57:53.427Z,57.40
2018-06-09T19:00:22.493Z,58.30
2018-06-09T19:07:48.906Z,59.20
2018-06-09T19:10:18.066Z,60.60
2018-06-09T19:12:47.223Z,61.10
2018-06-09T19:15:16.314Z,61.60
2018-06-09T19:17:45.501Z,62.60
2018-06-09T19:20:14.618Z,63.70
2018-06-09T19:22:43.717Z,66.10
2018-06-09T19:25:12.793Z,67.00
2018-06-09T19:27:42.763Z,67.00
2018-06-09T19:30:11.821Z,68.00
2018-06-09T19:32:40.981Z,69.80
2018-06-09T19:35:10.184Z,71.20
2018-06-09T19:37:39.359Z,71.10
2018-06-09T19:40:08.486Z,72.40
2018-06-09T19:42:37.603Z,73.00
2018-06-09T19:45:06.739Z,73.50
2018-06-09T19:47:35.938Z,74.30
2018-06-09T19:50:05.020Z,76.20
2018-06-09T19:52:34.202Z,78.90
2018-06-09T19:55:03.288Z,80.40
2018-06-09T19:57:32.422Z,79.00
2018-06-09T20:02:30.177Z,82.10
2018-06-09T20:04:59.286Z,82.90
2018-06-09T20:07:28.557Z,82.20
2018-06-09T20:09:57.736Z,83.20
2018-06-09T20:12:26.843Z,83.70
2018-06-09T20:14:55.920Z,83.70
2018-06-09T20:17:24.989Z,85.50
2018-06-09T20:19:54.021Z,86.00
2018-06-09T20:22:23.096Z,86.80
2018-06-09T20:24:52.160Z,87.20
2018-06-09T20:27:21.201Z,90.00
2018-06-09T20:29:50.236Z,90.20
2018-06-09T20:32:19.290Z,90.50
2018-06-09T20:34:48.363Z,90.90
2018-06-09T20:37:17.449Z,90.80
2018-06-09T20:39:46.472Z,90.80
2018-06-09T20:42:15.607Z,92.90
2018-06-09T20:44:44.648Z,92.80
2018-06-09T20:47:13.704Z,93.00
2018-06-09T20:49:42.838Z,94.10
2018-06-09T20:52:11.867Z,94.60
2018-06-09T20:54:40.940Z,94.20
2018-06-09T20:57:09.972Z,93.90
2018-06-09T20:59:39.093Z,94.30
2018-06-09T21:04:36.790Z,94.90
2018-06-09T21:07:05.863Z,95.40
2018-06-09T21:09:34.916Z,95.80
2018-06-09T21:12:03.962Z,96.10
2018-06-09T21:14:33.020Z,96.80
2018-06-09T21:17:02.164Z,97.10
2018-06-09T21:19:31.332Z,97.30
2018-06-09T21:24:29.097Z,97.40
2018-06-09T21:27:03.391Z,97.50
2018-06-09T21:29:38.520Z,97.70
2018-06-09T21:32:09.286Z,97.80
2018-06-09T21:34:55.155Z,97.90
2018-06-09T21:37:29.593Z,97.70
2018-06-09T21:40:01.547Z,97.60
2018-06-09T21:42:35.230Z,97.40
2018-06-09T21:45:08.205Z,97.10
2018-06-09T21:47:37.279Z,96.90
2018-06-09T21:50:06.536Z,96.80
2018-06-09T21:52:35.606Z,98.00
2018-06-09T21:55:04.745Z,98.70
2018-06-09T21:57:33.779Z,98.90
2018-06-09T22:00:03.129Z,99.50
2018-06-09T22:02:32.351Z,99.90
2018-06-09T22:05:01.464Z,99.90
2018-06-09T22:07:30.570Z,99.90
2018-06-09T22:09:59.648Z,99.90
2018-06-09T22:12:28.749Z,99.90
2018-06-09T22:14:57.825Z,99.90
2018-06-09T22:17:26.875Z,99.90
2018-06-09T22:19:55.964Z,99.90
2018-06-09T22:22:25.028Z,99.90
2018-06-09T22:24:54.099Z,99.90
2018-06-09T22:27:23.169Z,99.90
2018-06-09T22:29:52.230Z,99.90
2018-06-09T22:32:21.276Z,99.90
2018-06-09T22:37:19.020Z,99.90
2018-06-09T22:39:48.115Z,99.90
2018-06-09T22:42:17.158Z,99.90
2018-06-09T22:44:46.232Z,99.90
2018-06-09T22:47:15.279Z,99.90
2018-06-09T22:49:44.319Z,99.90
2018-06-09T22:52:13.392Z,99.90
2018-06-09T22:54:42.422Z,99.90
2018-06-09T22:57:11.473Z,99.90
2018-06-09T22:59:40.508Z,99.90
2018-06-09T23:02:09.572Z,99.90
2018-06-09T23:04:38.595Z,99.90
2018-06-09T23:07:07.676Z,99.90
2018-06-09T23:09:36.703Z,99.90
2018-06-09T23:12:05.764Z,99.90
2018-06-09T23:14:34.794Z,99.90
2018-06-09T23:17:04.065Z,99.90
2018-06-09T23:19:33.091Z,99.90
2018-06-09T23:22:02.177Z,99.90
2018-06-09T23:24:31.208Z,99.90
2018-06-09T23:27:00.281Z,99.90
2018-06-09T23:29:29.314Z,99.90
2018-06-09T23:31:58.388Z,99.90
2018-06-09T23:34:27.424Z,99.90
2018-06-09T23:36:56.504Z,99.90
2018-06-09T23:39:25.528Z,99.90
2018-06-09T23:41:54.601Z,99.90
2018-06-09T23:44:23.636Z,99.90
2018-06-09T23:46:52.725Z,99.90
2018-06-09T23:49:21.752Z,99.90
2018-06-09T23:51:50.817Z,99.90
2018-06-09T23:54:19.852Z,99.90
2018-06-09T23:56:48.904Z,99.90
2018-06-09T23:59:17.937Z,99.90
